sensor_id;sensor_type;location;lat;lon;timestamp;temperature;humidity
15947;DHT22;8072;52.554;7.966;2022-08-19T00:00:15;18.20;99.90
15947;DHT22;8072;52.554;7.966;2022-08-19T00:02:41;18.20;99.90
15947;DHT22;8072;52.554;7.966;2022-08-19T00:05:08;18.10;99.90
15947;DHT22;8072;52.554;7.966;2022-08-19T00:07:35;18.10;99.90
15947;DHT22;8072;52.554;7.966;2022-08-19T00:10:00;18.10;99.90
15947;DHT22;8072;52.554;7.966;2022-08-19T00:12:26;18.00;99.90
15947;DHT22;8072;52.554;7.966;2022-08-19T00:14:52;18.00;99.90
15947;DHT22;8072;52.554;7.966;2022-08-19T00:17:20;18.00;99.90
15947;DHT22;8072;52.554;7.966;2022-08-19T00:19:46;18.00;99.90
15947;DHT22;8072;52.554;7.966;2022-08-19T00:22:11;18.00;99.90
15947;DHT22;8072;52.554;7.966;2022-08-19T00:24:37;18.00;99.90
15947;DHT22;8072;52.554;7.966;2022-08-19T00:27:04;18.00;99.90
15947;DHT22;8072;52.554;7.966;2022-08-19T00:29:31;18.00;99.90
15947;DHT22;8072;52.554;7.966;2022-08-19T00:31:57;17.90;99.90
15947;DHT22;8072;52.554;7.966;2022-08-19T00:34:25;17.90;99.90
15947;DHT22;8072;52.554;7.966;2022-08-19T00:36:54;17.90;99.90
15947;DHT22;8072;52.554;7.966;2022-08-19T00:39:20;17.80;99.90
15947;DHT22;8072;52.554;7.966;2022-08-19T00:41:47;17.80;99.90
15947;DHT22;8072;52.554;7.966;2022-08-19T00:44:20;17.80;99.90
15947;DHT22;8072;52.554;7.966;2022-08-19T00:46:48;17.70;99.90
15947;DHT22;8072;52.554;7.966;2022-08-19T00:51:50;17.70;99.90
15947;DHT22;8072;52.554;7.966;2022-08-19T00:54:17;17.70;99.90
15947;DHT22;8072;52.554;7.966;2022-08-19T00:56:44;17.70;99.90
15947;DHT22;8072;52.554;7.966;2022-08-19T00:59:10;17.70;99.90
15947;DHT22;8072;52.554;7.966;2022-08-19T01:01:38;17.70;99.90
15947;DHT22;8072;52.554;7.966;2022-08-19T01:04:05;17.70;99.90
15947;DHT22;8072;52.554;7.966;2022-08-19T01:06:31;17.70;99.90
15947;DHT22;8072;52.554;7.966;2022-08-19T01:08:59;17.60;99.90
15947;DHT22;8072;52.554;7.966;2022-08-19T01:11:26;17.60;99.90
15947;DHT22;8072;52.554;7.966;2022-08-19T01:13:53;17.60;99.90
15947;DHT22;8072;52.554;7.966;2022-08-19T01:16:22;17.60;99.90
15947;DHT22;8072;52.554;7.966;2022-08-19T01:18:50;17.50;99.90
15947;DHT22;8072;52.554;7.966;2022-08-19T01:21:42;17.60;99.90
15947;DHT22;8072;52.554;7.966;2022-08-19T01:24:09;17.60;99.90
15947;DHT22;8072;52.554;7.966;2022-08-19T01:26:42;17.50;99.90
15947;DHT22;8072;52.554;7.966;2022-08-19T01:29:09;17.50;99.90
15947;DHT22;8072;52.554;7.966;2022-08-19T01:31:36;17.30;99.90
15947;DHT22;8072;52.554;7.966;2022-08-19T01:34:05;17.20;99.90
15947;DHT22;8072;52.554;7.966;2022-08-19T01:36:43;17.10;99.90
15947;DHT22;8072;52.554;7.966;2022-08-19T01:39:14;17.00;99.90
15947;DHT22;8072;52.554;7.966;2022-08-19T01:41:40;16.90;99.90
15947;DHT22;8072;52.554;7.966;2022-08-19T01:44:09;16.90;99.90
15947;DHT22;8072;52.554;7.966;2022-08-19T01:46:35;16.90;99.90
15947;DHT22;8072;52.554;7.966;2022-08-19T01:49:03;16.90;99.90
15947;DHT22;8072;52.554;7.966;2022-08-19T01:51:29;16.90;99.90
15947;DHT22;8072;52.554;7.966;2022-08-19T01:53:56;16.90;99.90
15947;DHT22;8072;52.554;7.966;2022-08-19T01:56:23;16.80;99.90
15947;DHT22;8072;52.554;7.966;2022-08-19T01:58:57;16.80;99.90
15947;DHT22;8072;52.554;7.966;2022-08-19T02:01:23;16.80;99.90
15947;DHT22;8072;52.554;7.966;2022-08-19T02:03:49;16.80;99.90
15947;DHT22;8072;52.554;7.966;2022-08-19T02:06:17;16.80;99.90
15947;DHT22;8072;52.554;7.966;2022-08-19T02:08:43;16.80;99.90
15947;DHT22;8072;52.554;7.966;2022-08-19T02:11:19;16.70;99.90
15947;DHT22;8072;52.554;7.966;2022-08-19T02:13:45;16.80;99.90
15947;DHT22;8072;52.554;7.966;2022-08-19T02:16:11;16.70;99.90
15947;DHT22;8072;52.554;7.966;2022-08-19T02:18:37;16.70;99.90
15947;DHT22;8072;52.554;7.966;2022-08-19T02:21:02;16.70;99.90
15947;DHT22;8072;52.554;7.966;2022-08-19T02:23:28;16.70;99.90
15947;DHT22;8072;52.554;7.966;2022-08-19T02:25:54;16.80;99.90
15947;DHT22;8072;52.554;7.966;2022-08-19T02:28:20;16.70;99.90
15947;DHT22;8072;52.554;7.966;2022-08-19T02:30:47;16.70;99.90
15947;DHT22;8072;52.554;7.966;2022-08-19T02:33:13;16.60;99.90
15947;DHT22;8072;52.554;7.966;2022-08-19T02:35:44;16.50;99.90
15947;DHT22;8072;52.554;7.966;2022-08-19T02:38:09;16.30;99.90
15947;DHT22;8072;52.554;7.966;2022-08-19T02:40:59;16.30;99.90
15947;DHT22;8072;52.554;7.966;2022-08-19T02:43:27;16.30;99.90
15947;DHT22;8072;52.554;7.966;2022-08-19T02:45:54;16.30;99.90
15947;DHT22;8072;52.554;7.966;2022-08-19T02:48:21;16.30;99.90
15947;DHT22;8072;52.554;7.966;2022-08-19T02:50:49;16.30;99.90
15947;DHT22;8072;52.554;7.966;2022-08-19T02:53:22;16.30;99.90
15947;DHT22;8072;52.554;7.966;2022-08-19T02:55:49;16.30;99.90
15947;DHT22;8072;52.554;7.966;2022-08-19T02:58:16;16.30;99.90
15947;DHT22;8072;52.554;7.966;2022-08-19T03:00:46;16.30;99.90
15947;DHT22;8072;52.554;7.966;2022-08-19T03:03:12;16.30;99.90
15947;DHT22;8072;52.554;7.966;2022-08-19T03:05:39;16.30;99.90
15947;DHT22;8072;52.554;7.966;2022-08-19T03:08:06;16.30;99.90
15947;DHT22;8072;52.554;7.966;2022-08-19T03:10:33;16.30;99.90
15947;DHT22;8072;52.554;7.966;2022-08-19T03:13:04;16.30;99.90
15947;DHT22;8072;52.554;7.966;2022-08-19T03:15:30;16.30;99.90
15947;DHT22;8072;52.554;7.966;2022-08-19T03:17:56;16.30;99.90
15947;DHT22;8072;52.554;7.966;2022-08-19T03:20:21;16.30;99.90
15947;DHT22;8072;52.554;7.966;2022-08-19T03:22:50;16.30;99.90
15947;DHT22;8072;52.554;7.966;2022-08-19T03:25:15;16.30;99.90
15947;DHT22;8072;52.554;7.966;2022-08-19T03:27:42;16.30;99.90
15947;DHT22;8072;52.554;7.966;2022-08-19T03:30:08;16.30;99.90
15947;DHT22;8072;52.554;7.966;2022-08-19T03:32:35;16.40;99.90
15947;DHT22;8072;52.554;7.966;2022-08-19T03:35:06;16.40;99.90
15947;DHT22;8072;52.554;7.966;2022-08-19T03:37:32;16.40;99.90
15947;DHT22;8072;52.554;7.966;2022-08-19T03:39:58;16.40;99.90
15947;DHT22;8072;52.554;7.966;2022-08-19T03:42:24;16.40;99.90
15947;DHT22;8072;52.554;7.966;2022-08-19T03:44:52;16.30;99.90
15947;DHT22;8072;52.554;7.966;2022-08-19T03:47:18;16.20;99.90
15947;DHT22;8072;52.554;7.966;2022-08-19T03:49:44;16.10;99.90
15947;DHT22;8072;52.554;7.966;2022-08-19T03:52:10;16.10;99.90
15947;DHT22;8072;52.554;7.966;2022-08-19T03:54:37;16.10;99.90
15947;DHT22;8072;52.554;7.966;2022-08-19T03:57:04;16.10;99.90
15947;DHT22;8072;52.554;7.966;2022-08-19T03:59:32;16.20;99.90
15947;DHT22;8072;52.554;7.966;2022-08-19T04:02:02;16.20;99.90
15947;DHT22;8072;52.554;7.966;2022-08-19T04:04:29;16.20;99.90
15947;DHT22;8072;52.554;7.966;2022-08-19T04:06:55;16.20;99.90
15947;DHT22;8072;52.554;7.966;2022-08-19T04:09:22;16.20;99.90
15947;DHT22;8072;52.554;7.966;2022-08-19T04:11:51;16.20;99.90
15947;DHT22;8072;52.554;7.966;2022-08-19T04:14:23;16.20;99.90
15947;DHT22;8072;52.554;7.966;2022-08-19T04:16:50;16.10;99.90
15947;DHT22;8072;52.554;7.966;2022-08-19T04:19:18;16.20;99.90
15947;DHT22;8072;52.554;7.966;2022-08-19T04:21:46;16.10;99.90
15947;DHT22;8072;52.554;7.966;2022-08-19T04:24:13;16.10;99.90
15947;DHT22;8072;52.554;7.966;2022-08-19T04:26:40;16.10;99.90
15947;DHT22;8072;52.554;7.966;2022-08-19T04:29:12;16.00;99.90
15947;DHT22;8072;52.554;7.966;2022-08-19T04:31:39;16.00;99.90
15947;DHT22;8072;52.554;7.966;2022-08-19T04:34:08;16.00;99.90
15947;DHT22;8072;52.554;7.966;2022-08-19T04:36:37;16.00;99.90
15947;DHT22;8072;52.554;7.966;2022-08-19T04:39:12;16.00;99.90
15947;DHT22;8072;52.554;7.966;2022-08-19T04:41:38;16.00;99.90
15947;DHT22;8072;52.554;7.966;2022-08-19T04:44:22;15.90;99.90
15947;DHT22;8072;52.554;7.966;2022-08-19T04:46:49;15.70;99.90
15947;DHT22;8072;52.554;7.966;2022-08-19T04:49:17;15.60;99.90
15947;DHT22;8072;52.554;7.966;2022-08-19T04:51:45;15.50;99.90
15947;DHT22;8072;52.554;7.966;2022-08-19T04:54:13;15.50;99.90
15947;DHT22;8072;52.554;7.966;2022-08-19T04:56:40;15.40;99.90
15947;DHT22;8072;52.554;7.966;2022-08-19T04:59:06;15.40;99.90
15947;DHT22;8072;52.554;7.966;2022-08-19T05:01:34;15.40;99.90
15947;DHT22;8072;52.554;7.966;2022-08-19T05:04:03;15.40;99.90
15947;DHT22;8072;52.554;7.966;2022-08-19T05:06:31;15.50;99.90
15947;DHT22;8072;52.554;7.966;2022-08-19T05:09:05;15.50;99.90
15947;DHT22;8072;52.554;7.966;2022-08-19T05:11:33;15.60;99.90
15947;DHT22;8072;52.554;7.966;2022-08-19T05:14:00;15.60;99.90
15947;DHT22;8072;52.554;7.966;2022-08-19T05:16:27;15.70;99.90
15947;DHT22;8072;52.554;7.966;2022-08-19T05:18:53;15.70;99.90
15947;DHT22;8072;52.554;7.966;2022-08-19T05:21:39;15.80;99.90
15947;DHT22;8072;52.554;7.966;2022-08-19T05:24:24;15.80;99.90
15947;DHT22;8072;52.554;7.966;2022-08-19T05:26:52;15.90;99.90
15947;DHT22;8072;52.554;7.966;2022-08-19T05:29:23;15.90;99.90
15947;DHT22;8072;52.554;7.966;2022-08-19T05:31:51;15.90;99.90
15947;DHT22;8072;52.554;7.966;2022-08-19T05:34:19;15.90;99.90
15947;DHT22;8072;52.554;7.966;2022-08-19T05:36:47;16.00;99.90
15947;DHT22;8072;52.554;7.966;2022-08-19T05:39:17;16.00;99.90
15947;DHT22;8072;52.554;7.966;2022-08-19T05:41:45;15.90;99.90
15947;DHT22;8072;52.554;7.966;2022-08-19T05:44:12;15.90;99.90
15947;DHT22;8072;52.554;7.966;2022-08-19T05:46:38;15.90;99.90
15947;DHT22;8072;52.554;7.966;2022-08-19T05:49:07;15.90;99.90
15947;DHT22;8072;52.554;7.966;2022-08-19T05:51:35;15.90;99.90
15947;DHT22;8072;52.554;7.966;2022-08-19T05:54:04;16.00;99.90
15947;DHT22;8072;52.554;7.966;2022-08-19T05:56:30;16.00;99.90
15947;DHT22;8072;52.554;7.966;2022-08-19T05:58:57;16.10;99.90
15947;DHT22;8072;52.554;7.966;2022-08-19T06:01:25;16.20;99.90
15947;DHT22;8072;52.554;7.966;2022-08-19T06:03:52;16.30;99.90
15947;DHT22;8072;52.554;7.966;2022-08-19T06:06:18;16.40;99.90
15947;DHT22;8072;52.554;7.966;2022-08-19T06:08:44;16.50;99.90
15947;DHT22;8072;52.554;7.966;2022-08-19T06:13:52;16.70;99.90
15947;DHT22;8072;52.554;7.966;2022-08-19T06:16:21;16.80;99.90
15947;DHT22;8072;52.554;7.966;2022-08-19T06:18:51;16.80;99.90
15947;DHT22;8072;52.554;7.966;2022-08-19T06:21:22;16.90;99.90
15947;DHT22;8072;52.554;7.966;2022-08-19T06:23:50;17.00;99.90
15947;DHT22;8072;52.554;7.966;2022-08-19T06:26:17;17.10;99.90
15947;DHT22;8072;52.554;7.966;2022-08-19T06:28:45;17.20;99.90
15947;DHT22;8072;52.554;7.966;2022-08-19T06:31:17;17.20;99.90
15947;DHT22;8072;52.554;7.966;2022-08-19T06:33:44;17.30;99.90
15947;DHT22;8072;52.554;7.966;2022-08-19T06:36:19;17.30;99.90
15947;DHT22;8072;52.554;7.966;2022-08-19T06:38:45;17.40;99.90
15947;DHT22;8072;52.554;7.966;2022-08-19T06:41:10;17.40;99.90
15947;DHT22;8072;52.554;7.966;2022-08-19T06:43:36;17.50;99.90
15947;DHT22;8072;52.554;7.966;2022-08-19T06:46:03;17.60;99.90
15947;DHT22;8072;52.554;7.966;2022-08-19T06:48:30;17.70;99.90
15947;DHT22;8072;52.554;7.966;2022-08-19T06:50:55;17.80;99.90
15947;DHT22;8072;52.554;7.966;2022-08-19T06:53:22;17.90;99.90
15947;DHT22;8072;52.554;7.966;2022-08-19T06:55:47;18.00;99.90
15947;DHT22;8072;52.554;7.966;2022-08-19T06:58:13;18.00;99.90
15947;DHT22;8072;52.554;7.966;2022-08-19T07:00:40;18.20;99.90
15947;DHT22;8072;52.554;7.966;2022-08-19T07:03:05;18.20;99.90
15947;DHT22;8072;52.554;7.966;2022-08-19T07:05:31;18.30;99.90
15947;DHT22;8072;52.554;7.966;2022-08-19T07:07:57;18.40;99.90
15947;DHT22;8072;52.554;7.966;2022-08-19T07:10:23;18.60;99.90
15947;DHT22;8072;52.554;7.966;2022-08-19T07:12:49;18.70;99.90
15947;DHT22;8072;52.554;7.966;2022-08-19T07:15:16;18.80;99.90
15947;DHT22;8072;52.554;7.966;2022-08-19T07:17:42;18.90;99.90
15947;DHT22;8072;52.554;7.966;2022-08-19T07:20:09;19.10;99.90
15947;DHT22;8072;52.554;7.966;2022-08-19T07:22:39;19.20;99.90
15947;DHT22;8072;52.554;7.966;2022-08-19T07:25:06;19.30;99.90
15947;DHT22;8072;52.554;7.966;2022-08-19T07:27:32;19.40;99.90
15947;DHT22;8072;52.554;7.966;2022-08-19T07:29:59;19.50;99.90
15947;DHT22;8072;52.554;7.966;2022-08-19T07:32:25;19.60;99.90
15947;DHT22;8072;52.554;7.966;2022-08-19T07:34:55;19.60;99.90
15947;DHT22;8072;52.554;7.966;2022-08-19T07:37:20;19.70;99.90
15947;DHT22;8072;52.554;7.966;2022-08-19T07:39:46;19.90;99.90
15947;DHT22;8072;52.554;7.966;2022-08-19T07:42:12;20.00;99.90
15947;DHT22;8072;52.554;7.966;2022-08-19T07:44:39;20.10;99.90
15947;DHT22;8072;52.554;7.966;2022-08-19T07:47:06;20.10;99.90
15947;DHT22;8072;52.554;7.966;2022-08-19T07:49:32;20.30;99.90
15947;DHT22;8072;52.554;7.966;2022-08-19T07:52:02;20.40;99.90
15947;DHT22;8072;52.554;7.966;2022-08-19T07:54:31;20.50;99.90
15947;DHT22;8072;52.554;7.966;2022-08-19T07:57:00;20.50;99.90
15947;DHT22;8072;52.554;7.966;2022-08-19T07:59:26;20.60;99.90
15947;DHT22;8072;52.554;7.966;2022-08-19T08:01:54;20.60;99.90
15947;DHT22;8072;52.554;7.966;2022-08-19T08:04:20;20.70;99.90
15947;DHT22;8072;52.554;7.966;2022-08-19T08:07:06;20.80;99.90
15947;DHT22;8072;52.554;7.966;2022-08-19T08:09:51;20.80;99.90
15947;DHT22;8072;52.554;7.966;2022-08-19T08:12:29;20.90;99.90
15947;DHT22;8072;52.554;7.966;2022-08-19T08:14:58;21.00;99.90
15947;DHT22;8072;52.554;7.966;2022-08-19T08:17:28;21.00;99.90
15947;DHT22;8072;52.554;7.966;2022-08-19T08:19:54;21.10;99.90
15947;DHT22;8072;52.554;7.966;2022-08-19T08:22:21;21.30;99.90
15947;DHT22;8072;52.554;7.966;2022-08-19T08:25:07;21.40;99.90
15947;DHT22;8072;52.554;7.966;2022-08-19T08:27:41;21.60;99.90
15947;DHT22;8072;52.554;7.966;2022-08-19T08:30:09;21.70;99.90
15947;DHT22;8072;52.554;7.966;2022-08-19T08:32:37;21.70;99.90
15947;DHT22;8072;52.554;7.966;2022-08-19T08:35:08;21.90;99.90
15947;DHT22;8072;52.554;7.966;2022-08-19T08:37:35;22.00;99.90
15947;DHT22;8072;52.554;7.966;2022-08-19T08:40:14;22.00;99.90
15947;DHT22;8072;52.554;7.966;2022-08-19T08:42:54;22.00;99.90
15947;DHT22;8072;52.554;7.966;2022-08-19T08:45:27;22.10;99.90
15947;DHT22;8072;52.554;7.966;2022-08-19T08:47:56;22.20;99.90
15947;DHT22;8072;52.554;7.966;2022-08-19T08:50:41;22.20;99.90
15947;DHT22;8072;52.554;7.966;2022-08-19T08:53:09;22.30;99.90
15947;DHT22;8072;52.554;7.966;2022-08-19T08:55:36;22.40;99.90
15947;DHT22;8072;52.554;7.966;2022-08-19T08:58:12;22.50;99.90
15947;DHT22;8072;52.554;7.966;2022-08-19T09:00:45;22.50;99.90
15947;DHT22;8072;52.554;7.966;2022-08-19T09:03:21;22.50;99.90
15947;DHT22;8072;52.554;7.966;2022-08-19T09:11:10;22.80;99.90
15947;DHT22;8072;52.554;7.966;2022-08-19T09:16:20;22.90;99.90
15947;DHT22;8072;52.554;7.966;2022-08-19T09:18:54;23.00;99.90
15947;DHT22;8072;52.554;7.966;2022-08-19T09:21:22;23.10;99.90
15947;DHT22;8072;52.554;7.966;2022-08-19T09:23:48;23.00;99.90
15947;DHT22;8072;52.554;7.966;2022-08-19T09:26:18;22.90;99.90
15947;DHT22;8072;52.554;7.966;2022-08-19T09:28:47;22.90;99.90
15947;DHT22;8072;52.554;7.966;2022-08-19T09:31:16;23.00;99.90
15947;DHT22;8072;52.554;7.966;2022-08-19T09:33:42;23.10;99.90
15947;DHT22;8072;52.554;7.966;2022-08-19T09:36:14;23.20;99.90
15947;DHT22;8072;52.554;7.966;2022-08-19T09:38:41;23.30;99.90
15947;DHT22;8072;52.554;7.966;2022-08-19T09:41:09;23.30;99.90
15947;DHT22;8072;52.554;7.966;2022-08-19T09:43:38;23.50;99.90
15947;DHT22;8072;52.554;7.966;2022-08-19T09:46:05;23.60;99.90
15947;DHT22;8072;52.554;7.966;2022-08-19T09:48:32;23.70;99.90
15947;DHT22;8072;52.554;7.966;2022-08-19T09:51:25;23.80;99.90
15947;DHT22;8072;52.554;7.966;2022-08-19T09:53:52;23.90;99.90
15947;DHT22;8072;52.554;7.966;2022-08-19T09:56:22;23.90;99.90
15947;DHT22;8072;52.554;7.966;2022-08-19T09:58:48;24.00;99.90
15947;DHT22;8072;52.554;7.966;2022-08-19T10:01:20;24.00;99.90
15947;DHT22;8072;52.554;7.966;2022-08-19T10:03:51;24.10;99.90
15947;DHT22;8072;52.554;7.966;2022-08-19T10:06:20;24.20;99.90
15947;DHT22;8072;52.554;7.966;2022-08-19T10:08:47;24.10;99.90
15947;DHT22;8072;52.554;7.966;2022-08-19T10:11:13;24.10;99.90
15947;DHT22;8072;52.554;7.966;2022-08-19T10:13:43;24.00;99.90
15947;DHT22;8072;52.554;7.966;2022-08-19T10:16:12;24.10;99.90
15947;DHT22;8072;52.554;7.966;2022-08-19T10:18:39;24.20;99.90
15947;DHT22;8072;52.554;7.966;2022-08-19T10:21:15;24.20;99.90
15947;DHT22;8072;52.554;7.966;2022-08-19T10:23:44;24.10;99.90
15947;DHT22;8072;52.554;7.966;2022-08-19T10:26:12;24.20;99.90
15947;DHT22;8072;52.554;7.966;2022-08-19T10:28:38;24.10;99.90
15947;DHT22;8072;52.554;7.966;2022-08-19T10:31:06;24.20;99.90
15947;DHT22;8072;52.554;7.966;2022-08-19T10:33:33;24.20;99.90
15947;DHT22;8072;52.554;7.966;2022-08-19T10:36:09;24.30;99.90
15947;DHT22;8072;52.554;7.966;2022-08-19T10:38:36;24.40;99.90
15947;DHT22;8072;52.554;7.966;2022-08-19T10:41:16;24.50;99.90
15947;DHT22;8072;52.554;7.966;2022-08-19T10:43:42;24.60;99.90
15947;DHT22;8072;52.554;7.966;2022-08-19T10:46:13;24.70;99.90
15947;DHT22;8072;52.554;7.966;2022-08-19T10:48:42;24.80;99.90
15947;DHT22;8072;52.554;7.966;2022-08-19T10:51:09;24.90;99.90
15947;DHT22;8072;52.554;7.966;2022-08-19T10:53:54;25.00;99.90
15947;DHT22;8072;52.554;7.966;2022-08-19T10:56:21;25.10;99.90
15947;DHT22;8072;52.554;7.966;2022-08-19T10:59:05;25.30;99.90
15947;DHT22;8072;52.554;7.966;2022-08-19T11:01:33;25.50;99.90
15947;DHT22;8072;52.554;7.966;2022-08-19T11:04:00;25.70;99.90
15947;DHT22;8072;52.554;7.966;2022-08-19T11:06:27;26.00;99.90
15947;DHT22;8072;52.554;7.966;2022-08-19T11:08:56;26.10;99.90
15947;DHT22;8072;52.554;7.966;2022-08-19T11:11:22;26.30;99.90
15947;DHT22;8072;52.554;7.966;2022-08-19T11:13:48;26.50;99.90
15947;DHT22;8072;52.554;7.966;2022-08-19T11:16:18;26.50;99.90
15947;DHT22;8072;52.554;7.966;2022-08-19T11:18:48;26.50;99.90
15947;DHT22;8072;52.554;7.966;2022-08-19T11:21:22;26.40;99.90
15947;DHT22;8072;52.554;7.966;2022-08-19T11:23:50;26.50;99.90
15947;DHT22;8072;52.554;7.966;2022-08-19T11:26:17;26.40;99.90
15947;DHT22;8072;52.554;7.966;2022-08-19T11:28:43;26.20;99.90
15947;DHT22;8072;52.554;7.966;2022-08-19T11:31:17;26.20;99.90
15947;DHT22;8072;52.554;7.966;2022-08-19T11:33:44;26.40;99.90
15947;DHT22;8072;52.554;7.966;2022-08-19T11:36:12;26.40;99.90
15947;DHT22;8072;52.554;7.966;2022-08-19T11:38:38;26.50;99.90
15947;DHT22;8072;52.554;7.966;2022-08-19T11:41:06;26.40;99.90
15947;DHT22;8072;52.554;7.966;2022-08-19T11:43:36;26.40;99.90
15947;DHT22;8072;52.554;7.966;2022-08-19T11:46:06;26.70;99.90
15947;DHT22;8072;52.554;7.966;2022-08-19T11:48:32;27.00;99.90
15947;DHT22;8072;52.554;7.966;2022-08-19T11:50:58;27.20;99.90
15947;DHT22;8072;52.554;7.966;2022-08-19T11:53:24;27.10;99.90
15947;DHT22;8072;52.554;7.966;2022-08-19T11:55:53;26.90;99.90
15947;DHT22;8072;52.554;7.966;2022-08-19T11:58:21;27.00;99.90
15947;DHT22;8072;52.554;7.966;2022-08-19T12:00:47;27.30;99.90
15947;DHT22;8072;52.554;7.966;2022-08-19T12:03:13;27.20;99.90
15947;DHT22;8072;52.554;7.966;2022-08-19T12:05:40;27.00;99.90
15947;DHT22;8072;52.554;7.966;2022-08-19T12:08:06;27.00;99.90
15947;DHT22;8072;52.554;7.966;2022-08-19T12:10:33;27.10;99.90
15947;DHT22;8072;52.554;7.966;2022-08-19T12:12:59;27.00;99.90
15947;DHT22;8072;52.554;7.966;2022-08-19T12:15:26;26.90;99.90
15947;DHT22;8072;52.554;7.966;2022-08-19T12:17:54;26.80;99.90
15947;DHT22;8072;52.554;7.966;2022-08-19T12:20:23;26.80;99.90
15947;DHT22;8072;52.554;7.966;2022-08-19T12:22:50;26.70;99.90
15947;DHT22;8072;52.554;7.966;2022-08-19T12:25:16;26.60;99.90
15947;DHT22;8072;52.554;7.966;2022-08-19T12:27:42;26.50;99.90
15947;DHT22;8072;52.554;7.966;2022-08-19T12:30:10;26.50;99.90
15947;DHT22;8072;52.554;7.966;2022-08-19T12:32:38;26.40;99.90
15947;DHT22;8072;52.554;7.966;2022-08-19T12:35:05;26.30;99.90
15947;DHT22;8072;52.554;7.966;2022-08-19T12:37:31;26.20;99.90
15947;DHT22;8072;52.554;7.966;2022-08-19T12:39:57;26.20;99.90
15947;DHT22;8072;52.554;7.966;2022-08-19T12:42:23;26.20;99.90
15947;DHT22;8072;52.554;7.966;2022-08-19T12:44:49;26.20;99.90
15947;DHT22;8072;52.554;7.966;2022-08-19T12:47:15;26.20;99.90
15947;DHT22;8072;52.554;7.966;2022-08-19T12:49:42;26.20;99.90
15947;DHT22;8072;52.554;7.966;2022-08-19T12:52:10;26.30;99.90
15947;DHT22;8072;52.554;7.966;2022-08-19T12:54:36;26.80;99.90
15947;DHT22;8072;52.554;7.966;2022-08-19T12:57:07;26.90;99.90
15947;DHT22;8072;52.554;7.966;2022-08-19T12:59:34;27.10;99.90
15947;DHT22;8072;52.554;7.966;2022-08-19T13:02:03;27.40;99.90
15947;DHT22;8072;52.554;7.966;2022-08-19T13:04:30;27.60;99.90
15947;DHT22;8072;52.554;7.966;2022-08-19T13:06:55;27.80;99.90
15947;DHT22;8072;52.554;7.966;2022-08-19T13:09:22;27.80;99.90
15947;DHT22;8072;52.554;7.966;2022-08-19T13:11:47;27.90;99.90
15947;DHT22;8072;52.554;7.966;2022-08-19T13:14:13;28.00;99.90
15947;DHT22;8072;52.554;7.966;2022-08-19T13:16:39;28.30;99.90
15947;DHT22;8072;52.554;7.966;2022-08-19T13:19:05;28.50;99.90
15947;DHT22;8072;52.554;7.966;2022-08-19T13:21:32;28.70;99.90
15947;DHT22;8072;52.554;7.966;2022-08-19T13:23:58;28.80;99.90
15947;DHT22;8072;52.554;7.966;2022-08-19T13:26:24;28.80;99.90
15947;DHT22;8072;52.554;7.966;2022-08-19T13:28:51;28.80;99.90
15947;DHT22;8072;52.554;7.966;2022-08-19T13:31:39;28.50;99.90
15947;DHT22;8072;52.554;7.966;2022-08-19T13:34:30;28.20;99.90
15947;DHT22;8072;52.554;7.966;2022-08-19T13:36:57;28.00;99.90
15947;DHT22;8072;52.554;7.966;2022-08-19T13:39:23;27.90;99.90
15947;DHT22;8072;52.554;7.966;2022-08-19T13:41:49;27.80;99.90
15947;DHT22;8072;52.554;7.966;2022-08-19T13:44:16;27.60;99.90
15947;DHT22;8072;52.554;7.966;2022-08-19T13:46:44;27.50;99.90
15947;DHT22;8072;52.554;7.966;2022-08-19T13:49:11;27.60;99.90
15947;DHT22;8072;52.554;7.966;2022-08-19T13:51:42;27.80;99.90
15947;DHT22;8072;52.554;7.966;2022-08-19T13:54:09;28.00;99.90
15947;DHT22;8072;52.554;7.966;2022-08-19T13:56:39;28.00;99.90
15947;DHT22;8072;52.554;7.966;2022-08-19T13:59:05;28.20;99.90
15947;DHT22;8072;52.554;7.966;2022-08-19T14:01:31;28.30;99.90
15947;DHT22;8072;52.554;7.966;2022-08-19T14:03:56;28.30;99.90
15947;DHT22;8072;52.554;7.966;2022-08-19T14:06:23;28.40;99.90
15947;DHT22;8072;52.554;7.966;2022-08-19T14:08:48;28.50;99.90
15947;DHT22;8072;52.554;7.966;2022-08-19T14:11:14;28.70;99.90
15947;DHT22;8072;52.554;7.966;2022-08-19T14:13:41;28.80;99.90
15947;DHT22;8072;52.554;7.966;2022-08-19T14:16:09;28.80;99.90
15947;DHT22;8072;52.554;7.966;2022-08-19T14:18:35;28.60;99.90
15947;DHT22;8072;52.554;7.966;2022-08-19T14:21:01;28.40;99.90
15947;DHT22;8072;52.554;7.966;2022-08-19T14:23:28;28.30;99.90
15947;DHT22;8072;52.554;7.966;2022-08-19T14:26:07;28.30;99.90
15947;DHT22;8072;52.554;7.966;2022-08-19T14:28:33;28.40;99.90
15947;DHT22;8072;52.554;7.966;2022-08-19T14:30:58;28.20;99.90
15947;DHT22;8072;52.554;7.966;2022-08-19T14:33:24;28.00;99.90
15947;DHT22;8072;52.554;7.966;2022-08-19T14:35:50;27.60;99.90
15947;DHT22;8072;52.554;7.966;2022-08-19T14:38:18;27.50;99.90
15947;DHT22;8072;52.554;7.966;2022-08-19T14:40:47;27.30;99.90
15947;DHT22;8072;52.554;7.966;2022-08-19T14:43:14;27.20;99.90
15947;DHT22;8072;52.554;7.966;2022-08-19T14:45:40;27.10;99.90
15947;DHT22;8072;52.554;7.966;2022-08-19T14:48:07;27.00;99.90
15947;DHT22;8072;52.554;7.966;2022-08-19T14:50:34;27.00;99.90
15947;DHT22;8072;52.554;7.966;2022-08-19T14:53:07;27.00;99.90
15947;DHT22;8072;52.554;7.966;2022-08-19T14:55:33;27.00;99.90
15947;DHT22;8072;52.554;7.966;2022-08-19T14:57:59;27.00;99.90
15947;DHT22;8072;52.554;7.966;2022-08-19T15:00:25;27.10;99.90
15947;DHT22;8072;52.554;7.966;2022-08-19T15:02:52;27.20;99.90
15947;DHT22;8072;52.554;7.966;2022-08-19T15:05:20;27.20;99.90
15947;DHT22;8072;52.554;7.966;2022-08-19T15:07:46;27.10;99.90
15947;DHT22;8072;52.554;7.966;2022-08-19T15:10:13;27.10;99.90
15947;DHT22;8072;52.554;7.966;2022-08-19T15:12:40;27.10;99.90
15947;DHT22;8072;52.554;7.966;2022-08-19T15:15:12;27.00;99.90
15947;DHT22;8072;52.554;7.966;2022-08-19T15:17:39;26.90;99.90
15947;DHT22;8072;52.554;7.966;2022-08-19T15:20:07;26.90;99.90
15947;DHT22;8072;52.554;7.966;2022-08-19T15:22:33;26.90;99.90
15947;DHT22;8072;52.554;7.966;2022-08-19T15:25:01;26.80;99.90
15947;DHT22;8072;52.554;7.966;2022-08-19T15:27:28;26.70;99.90
15947;DHT22;8072;52.554;7.966;2022-08-19T15:29:54;26.70;99.90
15947;DHT22;8072;52.554;7.966;2022-08-19T15:32:19;26.70;99.90
15947;DHT22;8072;52.554;7.966;2022-08-19T15:34:45;26.60;99.90
15947;DHT22;8072;52.554;7.966;2022-08-19T15:37:14;26.60;99.90
15947;DHT22;8072;52.554;7.966;2022-08-19T15:39:40;26.60;99.90
15947;DHT22;8072;52.554;7.966;2022-08-19T15:42:06;26.70;99.90
15947;DHT22;8072;52.554;7.966;2022-08-19T15:44:32;26.60;99.90
15947;DHT22;8072;52.554;7.966;2022-08-19T15:46:58;26.50;99.90
15947;DHT22;8072;52.554;7.966;2022-08-19T15:49:24;26.40;99.90
15947;DHT22;8072;52.554;7.966;2022-08-19T15:51:52;26.30;99.90
15947;DHT22;8072;52.554;7.966;2022-08-19T15:54:22;26.30;99.90
15947;DHT22;8072;52.554;7.966;2022-08-19T15:56:49;26.30;99.90
15947;DHT22;8072;52.554;7.966;2022-08-19T15:59:35;26.10;99.90
15947;DHT22;8072;52.554;7.966;2022-08-19T16:02:22;26.10;99.90
15947;DHT22;8072;52.554;7.966;2022-08-19T16:05:09;26.00;99.90